La Palma > WETTERSTATION Los Llanos de Aridane

AKTUELLE DATEN Online

Letztes Update am 3 minutos

21.3 ºC

Temperatur

59

Feuchtigkeit (%)

1025.3

Druck (mb)

0

Niederschlag (mm)

4.68 S

Wind (Km/h)

TÄGLICHE DATEN

Temperatur in den letzten 24 Stunden (ºC)

Luftfeuchtigkeit letzte 24 Stunden (%)

Atmosphärischer Druck in den letzten 24 Stunden últimas 24 horas (mb)

Niederschläge in den letzten 24 Stunden (mm)

Windböen in den letzten 24 Stunden (Km/h)

Stunde Temperatur (°C) ºC Niederschlag (mm) mm Druck (mb) mb Feuchtigkeit (%) % Wind (Km/h) km/h
28 - 10:00 21.4 0 1025 62 9.36 E
28 - 11:00 21.7 0 1025 61 10.98 S
28 - 12:00 22.8 0 1025 57 10.98 SW
28 - 13:00 20.7 0 1025 72 4.68 NW
28 - 14:00 21.2 0 1025 71 14.04 W
28 - 15:00 20.3 0 1025 74 7.74 SW
28 - 16:00 21.2 0 1024 68 7.74 SE
28 - 17:00 21.7 0 1024 66 15.66 E
28 - 18:00 21.6 0 1024 65 4.68 SE
28 - 19:00 20.4 0 1024 71 7.74 NW
28 - 20:00 19.8 0 1024 71 3.06 SW
28 - 21:00 19.7 0 1025 71 0 E
28 - 22:00 19.3 0 1025 77 0 NE
28 - 23:00 18.8 0 1025 77 0 NE
29 - 00:00 18.2 0 1025 75 0 NE
29 - 01:00 18.6 0 1025 74 1.62 E
29 - 02:00 18.5 0 1024 77 4.68 NE
29 - 03:00 18.6 0 1024 78 0 E
29 - 04:00 17.9 0 1024 77 4.68 E
29 - 05:00 18.2 0 1024 75 6.3 E
29 - 06:00 17.7 0 1024 72 1.62 S
29 - 07:00 17.6 0 1025 72 6.3 E
29 - 08:00 18.7 0 1025 70 7.74 E
29 - 09:00 20.3 0 1025 60 0 NE
29 - 10:00 21.3 0 1025 59 4.68 S
Apalmet nutzt eigene Cookies sowie Cookies von Dritten um unsere Dienstleistungen zu verbessern Cookies.